Shenandoah Municipal Airport
Thursday 5:40 PM
Weather Haze
Temperature 91°
Dew Point 66°
Feels Like 94°
Relative Humidity 44
%
Visibility 6
mi
Pressure 1010.5
mb
Wind Direction S
Wind Speed 13
mph
Last Hour Precip 0.00
"
KSDA 302240Z AUTO 18011KT 6SM HZ CLR 33/19 A2984 RMK AO2

Recent Observations

Time Present Weather Temp DP Feels RH% Vsby Pressure Ceiling Direction Speed Gust 1h Precip
5:40PM
VFR
HZ 91° 66° 94° 44
%
6
mi
1010.5
mb
None S 13
mph
0.00"
KSDA 302240Z AUTO 18011KT 6SM HZ CLR 33/19 A2984 RMK AO2
5:35PM
VFR
HZ 91° 66° 94° 44
%
6
mi
1010.5
mb
None S 13
mph
0.00"
KSDA 302235Z AUTO 18011KT 6SM HZ CLR 33/19 A2984 RMK AO2
5:30PM
VFR
HZ 91° 66° 94° 44
%
6
mi
1010.5
mb
None S 15
mph
0.00"
KSDA 302230Z AUTO 18013KT 6SM HZ CLR 33/19 A2984 RMK AO2
5:25PM
VFR
HZ 91° 66° 94° 44
%
6
mi
1010.5
mb
None S 15
mph
0.00"
KSDA 302225Z AUTO 18013KT 6SM HZ CLR 33/19 A2984 RMK AO2
5:20PM
VFR
HZ 91° 66° 94° 44
%
6
mi
1010.8
mb
None S 13
mph
0.00"
KSDA 302220Z AUTO 18011KT 6SM HZ CLR 33/19 A2985 RMK AO2
5:15PM
VFR
HZ 91° 64° 93° 41
%
6
mi
1010.8
mb
None S 14
mph
0.00"
KSDA 302215Z AUTO 18012KT 6SM HZ CLR 33/18 A2985 RMK AO2
5:10PM
VFR
HZ 91° 66° 94° 44
%
6
mi
1010.8
mb
None S 13
mph
0.00"
KSDA 302210Z AUTO 19011KT 6SM HZ CLR 33/19 A2985 RMK AO2
5:05PM
VFR
HZ 91° 66° 94° 44
%
6
mi
1010.5
mb
None S 12
mph
18
mph
0.00"
KSDA 302205Z AUTO 19010G16KT 6SM HZ CLR 33/19 A2984 RMK AO2
5:00PM
VFR
HZ 91° 66° 94° 44
%
6
mi
1010.5
mb
None SSW 13
mph
21
mph
0.00"
KSDA 302200Z AUTO 20011G18KT 6SM HZ CLR 33/19 A2984 RMK AO2
4:55PM
VFR
HZ 91° 66° 94° 44
%
6
mi
1010.5
mb
None S 14
mph
21
mph
0.00"
KSDA 302155Z AUTO 19012G18KT 6SM HZ CLR 33/19 A2984 RMK AO2
4:50PM
VFR
HZ 91° 66° 94° 44
%
6
mi
1010.5
mb
None SSW 15
mph
0.00"
KSDA 302150Z AUTO 20013KT 6SM HZ CLR 33/19 A2984 RMK AO2
4:45PM
VFR
HZ 90° 64° 91° 43
%
6
mi
1010.5
mb
None S 13
mph
21
mph
0.00"
KSDA 302145Z AUTO 19011G18KT 6SM HZ CLR 32/18 A2984 RMK AO2
4:40PM
VFR
HZ 90° 64° 91° 43
%
6
mi
1010.5
mb
None S 14
mph
21
mph
0.00"
KSDA 302140Z AUTO 18012G18KT 6SM HZ CLR 32/18 A2984 RMK AO2
4:35PM
VFR
91° 64° 93° 41
%
7
mi
1010.5
mb
None S 16
mph
0.00"
KSDA 302135Z AUTO 19014KT 7SM CLR 33/18 A2984 RMK AO2
4:30PM
VFR
HZ 91° 64° 93° 41
%
6
mi
1010.8
mb
None SSW 14
mph
24
mph
0.00"
KSDA 302130Z AUTO 20012G21KT 6SM HZ CLR 33/18 A2985 RMK AO2
4:25PM
VFR
HZ 91° 64° 93° 41
%
6
mi
1010.8
mb
None SSW 18
mph
24
mph
0.00"
KSDA 302125Z AUTO 20016G21KT 6SM HZ CLR 33/18 A2985 RMK AO2
4:20PM
VFR
91° 64° 93° 41
%
8
mi
1010.5
mb
None SSW 18
mph
28
mph
0.00"
KSDA 302120Z AUTO 20016G24KT 8SM CLR 33/18 A2984 RMK AO2
4:15PM
VFR
93° 64° 95° 39
%
9
mi
1010.5
mb
None SSW 18
mph
28
mph
0.00"
KSDA 302115Z AUTO 20016G24KT 9SM CLR 34/18 A2984 RMK AO2
4:10PM
VFR
93° 64° 95° 39
%
10
mi
1010.5
mb
None SSW 18
mph
0.00"
KSDA 302110Z AUTO 20016KT 10SM CLR 34/18 A2984 RMK AO2
4:05PM
VFR
91° 64° 93° 41
%
10
mi
1010.5
mb
None SSW 17
mph
0.00"
KSDA 302105Z AUTO 20015KT 10SM CLR 33/18 A2984 RMK AO2
Click here to show this page without METARs/TAFs included